sensor_id;sensor_type;location;lat;lon;timestamp;pressure;altitude;pressure_sealevel;temperature;humidity
11212;BME280;5663;50.864;12.096;2023-02-14T03:58:43;101399.66;;;0.38;74.03
11212;BME280;5663;50.864;12.096;2023-02-14T04:01:15;101406.59;;;0.43;74.26
11212;BME280;5663;50.864;12.096;2023-02-14T04:03:45;101405.72;;;0.41;74.35
11212;BME280;5663;50.864;12.096;2023-02-14T04:06:16;101406.50;;;0.39;73.96
11212;BME280;5663;50.864;12.096;2023-02-14T04:08:44;101411.53;;;0.34;73.81
11212;BME280;5663;50.864;12.096;2023-02-14T04:11:12;101410.63;;;0.32;73.86
11212;BME280;5663;50.864;12.096;2023-02-14T04:13:41;101408.88;;;0.31;73.87
11212;BME280;5663;50.864;12.096;2023-02-14T04:16:09;101410.56;;;0.29;73.60
11212;BME280;5663;50.864;12.096;2023-02-14T04:18:37;101416.44;;;0.27;73.63
11212;BME280;5663;50.864;12.096;2023-02-14T04:21:22;101410.31;;;0.20;73.71
11212;BME280;5663;50.864;12.096;2023-02-14T04:23:51;101410.25;;;0.17;73.48
11212;BME280;5663;50.864;12.096;2023-02-14T04:26:19;101406.84;;;0.16;73.51
11212;BME280;5663;50.864;12.096;2023-02-14T04:28:48;101399.88;;;0.11;73.62
11212;BME280;5663;50.864;12.096;2023-02-14T04:31:16;101403.25;;;0.10;73.48
11212;BME280;5663;50.864;12.096;2023-02-14T04:33:43;101401.53;;;0.09;74.07
11212;BME280;5663;50.864;12.096;2023-02-14T04:36:13;101399.78;;;0.08;73.61
11212;BME280;5663;50.864;12.096;2023-02-14T04:38:41;101384.13;;;-0.05;73.63
11212;BME280;5663;50.864;12.096;2023-02-14T04:41:09;101403.09;;;0.04;73.44
11212;BME280;5663;50.864;12.096;2023-02-14T04:43:36;101397.94;;;0.01;73.48
11212;BME280;5663;50.864;12.096;2023-02-14T04:46:05;101394.44;;;-0.02;73.40
11212;BME280;5663;50.864;12.096;2023-02-14T04:48:33;101399.47;;;-0.05;73.51
11212;BME280;5663;50.864;12.096;2023-02-14T04:51:01;101393.56;;;-0.04;73.54
11212;BME280;5663;50.864;12.096;2023-02-14T04:53:28;101385.81;;;-0.07;73.59
11212;BME280;5663;50.864;12.096;2023-02-14T04:55:56;101390.00;;;-0.09;73.43
11212;BME280;5663;50.864;12.096;2023-02-14T04:58:24;101387.41;;;-0.12;73.45
11212;BME280;5663;50.864;12.096;2023-02-14T05:00:52;101387.41;;;-0.12;73.51
11212;BME280;5663;50.864;12.096;2023-02-14T05:03:21;101379.63;;;-0.15;73.23
11212;BME280;5663;50.864;12.096;2023-02-14T05:05:49;101353.66;;;-0.32;72.82
11212;BME280;5663;50.864;12.096;2023-02-14T05:08:17;101370.16;;;-0.19;73.24
11212;BME280;5663;50.864;12.096;2023-02-14T05:10:44;101371.84;;;-0.19;73.42
11212;BME280;5663;50.864;12.096;2023-02-14T05:13:12;101369.16;;;-0.24;73.07
11212;BME280;5663;50.864;12.096;2023-02-14T05:15:40;101375.00;;;-0.28;72.99
11212;BME280;5663;50.864;12.096;2023-02-14T05:18:08;101365.63;;;-0.29;72.94
11212;BME280;5663;50.864;12.096;2023-02-14T05:20:37;101373.34;;;-0.28;72.90
11212;BME280;5663;50.864;12.096;2023-02-14T05:23:05;101365.63;;;-0.29;73.09
11212;BME280;5663;50.864;12.096;2023-02-14T05:25:38;101369.91;;;-0.28;73.03
11212;BME280;5663;50.864;12.096;2023-02-14T05:28:06;101369.03;;;-0.29;72.82
11212;BME280;5663;50.864;12.096;2023-02-14T05:30:34;101369.75;;;-0.34;73.13
11212;BME280;5663;50.864;12.096;2023-02-14T05:33:02;101368.03;;;-0.35;73.02
11212;BME280;5663;50.864;12.096;2023-02-14T05:35:30;101369.75;;;-0.34;73.06
11212;BME280;5663;50.864;12.096;2023-02-14T05:37:59;101373.97;;;-0.36;73.10
11212;BME280;5663;50.864;12.096;2023-02-14T05:40:28;101373.09;;;-0.37;73.07
11212;BME280;5663;50.864;12.096;2023-02-14T05:42:56;101376.50;;;-0.36;73.08
11212;BME280;5663;50.864;12.096;2023-02-14T05:45:24;101379.91;;;-0.37;72.80
11212;BME280;5663;50.864;12.096;2023-02-14T05:47:51;101378.19;;;-0.38;73.24
11212;BME280;5663;50.864;12.096;2023-02-14T05:50:19;101379.00;;;-0.39;72.92
11212;BME280;5663;50.864;12.096;2023-02-14T05:52:47;101358.91;;;-0.59;73.21
11212;BME280;5663;50.864;12.096;2023-02-14T05:55:16;101356.50;;;-0.53;72.91
11212;BME280;5663;50.864;12.096;2023-02-14T05:57:44;101372.00;;;-0.46;73.10
11212;BME280;5663;50.864;12.096;2023-02-14T06:00:13;101381.41;;;-0.45;73.18
11212;BME280;5663;50.864;12.096;2023-02-14T06:02:41;101381.41;;;-0.45;72.93
11212;BME280;5663;50.864;12.096;2023-02-14T06:05:09;101372.84;;;-0.47;73.22
11212;BME280;5663;50.864;12.096;2023-02-14T06:07:37;101378.81;;;-0.47;73.09
11212;BME280;5663;50.864;12.096;2023-02-14T06:10:05;101383.84;;;-0.50;73.18
11212;BME280;5663;50.864;12.096;2023-02-14T06:12:36;101376.03;;;-0.55;73.08
11212;BME280;5663;50.864;12.096;2023-02-14T06:15:05;101376.03;;;-0.55;73.12
11212;BME280;5663;50.864;12.096;2023-02-14T06:17:33;101368.41;;;-0.53;73.21
11212;BME280;5663;50.864;12.096;2023-02-14T06:20:00;101376.88;;;-0.56;72.79
11212;BME280;5663;50.864;12.096;2023-02-14T06:22:28;101387.91;;;-0.57;72.72
11212;BME280;5663;50.864;12.096;2023-02-14T06:24:56;101382.75;;;-0.60;72.79
11212;BME280;5663;50.864;12.096;2023-02-14T06:27:24;101380.97;;;-0.61;72.83
11212;BME280;5663;50.864;12.096;2023-02-14T06:29:55;101381.81;;;-0.62;72.85
11212;BME280;5663;50.864;12.096;2023-02-14T08:59:37;101275.53;;;1.01;75.07
11212;BME280;5663;50.864;12.096;2023-02-14T09:02:09;101292.97;;;1.20;75.36
11212;BME280;5663;50.864;12.096;2023-02-14T09:04:53;101321.53;;;1.41;75.63
11212;BME280;5663;50.864;12.096;2023-02-14T09:07:21;101284.66;;;1.33;75.77
11212;BME280;5663;50.864;12.096;2023-02-14T09:09:50;101320.13;;;1.59;76.09
11212;BME280;5663;50.864;12.096;2023-02-14T09:12:17;101319.41;;;1.66;76.28
11212;BME280;5663;50.864;12.096;2023-02-14T09:14:52;101317.84;;;1.74;76.66
11212;BME280;5663;50.864;12.096;2023-02-14T09:17:30;101319.72;;;1.84;76.85
11212;BME280;5663;50.864;12.096;2023-02-14T09:20:01;101287.91;;;1.75;77.06
11212;BME280;5663;50.864;12.096;2023-02-14T09:22:31;101305.44;;;2.03;77.15
11212;BME280;5663;50.864;12.096;2023-02-14T09:25:20;101304.75;;;2.12;77.34
11212;BME280;5663;50.864;12.096;2023-02-14T09:27:55;101308.31;;;2.23;77.73
11212;BME280;5663;50.864;12.096;2023-02-14T09:30:25;101308.47;;;2.32;77.98
11212;BME280;5663;50.864;12.096;2023-02-14T09:32:59;101306.91;;;2.43;78.35
11212;BME280;5663;50.864;12.096;2023-02-14T09:35:37;101303.59;;;2.52;78.40
11212;BME280;5663;50.864;12.096;2023-02-14T09:38:04;101304.63;;;2.63;78.75
11212;BME280;5663;50.864;12.096;2023-02-14T09:40:35;101307.28;;;2.74;78.81
11212;BME280;5663;50.864;12.096;2023-02-14T09:43:11;101305.72;;;2.87;79.21
11212;BME280;5663;50.864;12.096;2023-02-14T09:45:51;101311.88;;;2.98;79.98
11212;BME280;5663;50.864;12.096;2023-02-14T09:48:37;101303.44;;;3.10;79.93
11212;BME280;5663;50.864;12.096;2023-02-14T09:51:11;101308.69;;;3.22;79.77
11212;BME280;5663;50.864;12.096;2023-02-14T09:53:51;101304.53;;;3.33;80.23
11212;BME280;5663;50.864;12.096;2023-02-14T09:56:24;101302.94;;;3.44;80.69
11212;BME280;5663;50.864;12.096;2023-02-14T12:00:52;101187.00;;;9.48;76.25
11212;BME280;5663;50.864;12.096;2023-02-14T12:03:20;101177.28;;;9.57;75.85
11212;BME280;5663;50.864;12.096;2023-02-14T12:05:49;101148.75;;;9.56;74.91
11212;BME280;5663;50.864;12.096;2023-02-14T12:08:23;101166.53;;;9.79;73.59
11212;BME280;5663;50.864;12.096;2023-02-14T12:11:02;101164.53;;;9.92;73.13
11212;BME280;5663;50.864;12.096;2023-02-14T12:13:31;101160.19;;;9.94;72.54
11212;BME280;5663;50.864;12.096;2023-02-14T12:16:01;101170.25;;;10.09;72.23
11212;BME280;5663;50.864;12.096;2023-02-14T12:18:42;101154.56;;;10.15;72.14
11212;BME280;5663;50.864;12.096;2023-02-14T12:24:19;101154.22;;;10.33;72.00
11212;BME280;5663;50.864;12.096;2023-02-14T12:27:03;101152.41;;;10.35;71.67
11212;BME280;5663;50.864;12.096;2023-02-14T12:29:38;101152.25;;;10.43;71.57
11212;BME280;5663;50.864;12.096;2023-02-14T12:32:20;101146.94;;;10.48;71.49
11212;BME280;5663;50.864;12.096;2023-02-14T12:34:50;101146.88;;;10.51;71.32
11212;BME280;5663;50.864;12.096;2023-02-14T12:37:39;101147.63;;;10.56;70.68
11212;BME280;5663;50.864;12.096;2023-02-14T12:40:21;101145.81;;;10.59;69.95
11212;BME280;5663;50.864;12.096;2023-02-14T12:43:02;101137.91;;;10.64;69.80
11212;BME280;5663;50.864;12.096;2023-02-14T12:46:02;101121.38;;;10.67;69.18
11212;BME280;5663;50.864;12.096;2023-02-14T12:48:44;101127.22;;;10.76;68.23
11212;BME280;5663;50.864;12.096;2023-02-14T12:51:21;101128.00;;;10.81;68.09
11212;BME280;5663;50.864;12.096;2023-02-14T12:54:02;101125.22;;;10.88;67.40
11212;BME280;5663;50.864;12.096;2023-02-14T12:56:43;101125.00;;;10.97;67.41
11212;BME280;5663;50.864;12.096;2023-02-14T12:59:25;101123.16;;;11.02;67.77
11212;BME280;5663;50.864;12.096;2023-02-14T13:05:00;101110.75;;;11.12;67.00
11212;BME280;5663;50.864;12.096;2023-02-14T13:07:47;101115.78;;;11.19;66.14
11212;BME280;5663;50.864;12.096;2023-02-14T13:10:27;101116.38;;;11.29;66.92
11212;BME280;5663;50.864;12.096;2023-02-14T13:13:04;101105.75;;;11.37;66.45
11212;BME280;5663;50.864;12.096;2023-02-14T13:15:38;101109.91;;;11.44;66.00
11212;BME280;5663;50.864;12.096;2023-02-14T13:18:14;101107.97;;;11.52;65.88
11212;BME280;5663;50.864;12.096;2023-02-14T13:20:50;101082.81;;;11.51;65.47
11212;BME280;5663;50.864;12.096;2023-02-14T13:23:34;101098.81;;;11.68;65.54
11212;BME280;5663;50.864;12.096;2023-02-14T13:26:11;101097.81;;;11.74;65.83
11212;BME280;5663;50.864;12.096;2023-02-14T13:28:44;101088.16;;;11.77;65.42
11212;BME280;5663;50.864;12.096;2023-02-14T13:31:14;101096.69;;;11.84;65.21
11212;BME280;5663;50.864;12.096;2023-02-14T13:33:44;101095.69;;;11.88;64.66
11212;BME280;5663;50.864;12.096;2023-02-14T13:36:17;101081.88;;;11.84;64.48
11212;BME280;5663;50.864;12.096;2023-02-14T13:38:49;101082.72;;;11.87;64.42
11212;BME280;5663;50.864;12.096;2023-02-14T13:41:40;101086.88;;;11.94;64.12
11212;BME280;5663;50.864;12.096;2023-02-14T13:44:40;101074.91;;;11.87;63.63
11212;BME280;5663;50.864;12.096;2023-02-14T13:47:16;101087.84;;;11.90;63.33
11212;BME280;5663;50.864;12.096;2023-02-14T13:49:52;101086.13;;;11.89;63.25
11212;BME280;5663;50.864;12.096;2023-02-14T13:52:45;101079.19;;;11.88;62.59
11212;BME280;5663;50.864;12.096;2023-02-14T13:55:20;101075.69;;;11.89;63.04
11212;BME280;5663;50.864;12.096;2023-02-14T13:58:06;101078.28;;;11.90;62.27
11212;BME280;5663;50.864;12.096;2023-02-14T16:00:53;101014.50;;;10.00;67.42
11212;BME280;5663;50.864;12.096;2023-02-14T16:03:24;101023.41;;;9.90;67.81
11212;BME280;5663;50.864;12.096;2023-02-14T16:05:53;101013.22;;;9.77;67.32
11212;BME280;5663;50.864;12.096;2023-02-14T16:08:25;101013.56;;;9.62;67.30
11212;BME280;5663;50.864;12.096;2023-02-14T16:10:59;101012.03;;;9.52;67.69
11212;BME280;5663;50.864;12.096;2023-02-14T16:13:30;101011.47;;;9.37;67.51
11212;BME280;5663;50.864;12.096;2023-02-14T16:16:02;101006.56;;;9.22;67.62
11212;BME280;5663;50.864;12.096;2023-02-14T16:18:35;101012.84;;;9.09;67.83
11212;BME280;5663;50.864;12.096;2023-02-14T16:21:15;101013.19;;;8.91;67.99
11212;BME280;5663;50.864;12.096;2023-02-14T16:24:10;101012.63;;;8.73;67.71
11212;BME280;5663;50.864;12.096;2023-02-14T16:26:40;101011.16;;;8.57;68.11
11212;BME280;5663;50.864;12.096;2023-02-14T16:29:09;101008.88;;;8.38;68.00
11212;BME280;5663;50.864;12.096;2023-02-14T16:31:42;101019.28;;;8.32;68.35
11212;BME280;5663;50.864;12.096;2023-02-14T16:34:11;101022.94;;;8.19;68.77
11212;BME280;5663;50.864;12.096;2023-02-14T16:36:47;101023.19;;;8.01;69.02
11212;BME280;5663;50.864;12.096;2023-02-14T16:39:17;101024.28;;;7.86;68.94
11212;BME280;5663;50.864;12.096;2023-02-14T16:41:47;101021.81;;;7.75;69.38
11212;BME280;5663;50.864;12.096;2023-02-14T16:44:18;101022.81;;;7.62;69.31
11212;BME280;5663;50.864;12.096;2023-02-14T16:46:49;101027.34;;;7.46;69.15
11212;BME280;5663;50.864;12.096;2023-02-14T16:49:18;101025.75;;;7.33;69.69
11212;BME280;5663;50.864;12.096;2023-02-14T16:51:51;101029.34;;;7.21;68.85
11212;BME280;5663;50.864;12.096;2023-02-14T16:54:25;101032.94;;;7.05;69.85
11212;BME280;5663;50.864;12.096;2023-02-14T16:56:56;101029.66;;;6.90;69.84
11212;BME280;5663;50.864;12.096;2023-02-14T16:59:28;101033.19;;;6.79;70.23
11212;BME280;5663;50.864;12.096;2023-02-14T17:01:58;101032.50;;;6.60;70.02
11212;BME280;5663;50.864;12.096;2023-02-14T17:04:27;101035.16;;;6.48;70.37
11212;BME280;5663;50.864;12.096;2023-02-14T17:06:56;101030.09;;;6.35;70.34
11212;BME280;5663;50.864;12.096;2023-02-14T17:09:29;101031.03;;;6.21;70.22
11212;BME280;5663;50.864;12.096;2023-02-14T17:12:04;101031.13;;;6.07;70.64
11212;BME280;5663;50.864;12.096;2023-02-14T17:14:36;101030.31;;;5.99;70.59
11212;BME280;5663;50.864;12.096;2023-02-14T17:17:08;101038.06;;;5.92;70.60
11212;BME280;5663;50.864;12.096;2023-02-14T17:19:36;101038.06;;;5.86;70.47
11212;BME280;5663;50.864;12.096;2023-02-14T17:22:09;101037.25;;;5.78;70.66
11212;BME280;5663;50.864;12.096;2023-02-14T17:24:41;101039.00;;;5.70;70.80
11212;BME280;5663;50.864;12.096;2023-02-14T17:27:12;101037.31;;;5.63;70.99
11212;BME280;5663;50.864;12.096;2023-02-14T17:29:41;101038.19;;;5.57;70.53
11212;BME280;5663;50.864;12.096;2023-02-14T17:32:11;101045.97;;;5.51;70.74
11212;BME280;5663;50.864;12.096;2023-02-14T17:34:39;101036.50;;;5.42;70.67
11212;BME280;5663;50.864;12.096;2023-02-14T17:37:16;101037.41;;;5.35;70.76
11212;BME280;5663;50.864;12.096;2023-02-14T17:39:46;101041.72;;;5.26;71.00
11212;BME280;5663;50.864;12.096;2023-02-14T17:42:14;101034.03;;;5.15;71.18
11212;BME280;5663;50.864;12.096;2023-02-14T17:44:43;101029.72;;;4.99;70.77
11212;BME280;5663;50.864;12.096;2023-02-14T17:47:12;101016.88;;;4.71;71.17
11212;BME280;5663;50.864;12.096;2023-02-14T17:49:40;101040.06;;;4.85;71.48
11212;BME280;5663;50.864;12.096;2023-02-14T17:52:09;101036.63;;;4.80;71.11
11212;BME280;5663;50.864;12.096;2023-02-14T17:54:38;101040.06;;;4.69;71.66
11212;BME280;5663;50.864;12.096;2023-02-14T17:57:06;101031.47;;;4.60;71.27
11212;BME280;5663;50.864;12.096;2023-02-14T17:59:42;101032.34;;;4.53;71.50
11212;BME280;5663;50.864;12.096;2023-02-14T22:01:03;100879.03;;;1.50;74.58
11212;BME280;5663;50.864;12.096;2023-02-14T22:03:31;100868.78;;;1.50;74.81
11212;BME280;5663;50.864;12.096;2023-02-14T22:06:01;100877.38;;;1.55;74.55
11212;BME280;5663;50.864;12.096;2023-02-14T22:08:29;100848.09;;;1.34;74.81
11212;BME280;5663;50.864;12.096;2023-02-14T22:10:58;100878.22;;;1.54;75.12
11212;BME280;5663;50.864;12.096;2023-02-14T22:13:29;100855.88;;;1.40;75.19
11212;BME280;5663;50.864;12.096;2023-02-14T22:15:59;100878.22;;;1.54;75.25
11212;BME280;5663;50.864;12.096;2023-02-14T22:18:30;100882.50;;;1.55;75.42
11212;BME280;5663;50.864;12.096;2023-02-14T22:20:59;100885.09;;;1.58;75.41
11212;BME280;5663;50.864;12.096;2023-02-14T22:23:32;100880.81;;;1.57;75.21
11212;BME280;5663;50.864;12.096;2023-02-14T22:26:10;100878.25;;;1.57;75.32
11212;BME280;5663;50.864;12.096;2023-02-14T22:28:39;100882.53;;;1.56;75.18
11212;BME280;5663;50.864;12.096;2023-02-14T22:31:08;100888.50;;;1.57;74.91
11212;BME280;5663;50.864;12.096;2023-02-14T22:33:38;100833.50;;;1.24;74.84
11212;BME280;5663;50.864;12.096;2023-02-14T22:36:07;100878.22;;;1.54;75.14
11212;BME280;5663;50.864;12.096;2023-02-14T22:38:35;100877.31;;;1.50;75.21
11212;BME280;5663;50.864;12.096;2023-02-14T22:41:13;100884.16;;;1.50;75.03
11212;BME280;5663;50.864;12.096;2023-02-14T22:43:45;100878.13;;;1.47;75.22
11212;BME280;5663;50.864;12.096;2023-02-14T22:46:15;100887.53;;;1.47;75.23
11212;BME280;5663;50.864;12.096;2023-02-14T22:48:47;100879.84;;;1.45;75.26
11212;BME280;5663;50.864;12.096;2023-02-14T22:51:19;100883.22;;;1.41;75.22
11212;BME280;5663;50.864;12.096;2023-02-14T22:53:49;100843.75;;;1.24;75.25
11212;BME280;5663;50.864;12.096;2023-02-14T22:56:20;100889.19;;;1.42;75.51
11212;BME280;5663;50.864;12.096;2023-02-14T22:58:52;100884.06;;;1.42;75.59
11212;BME280;5663;50.864;12.096;2023-02-14T23:01:25;100878.94;;;1.40;75.46
11212;BME280;5663;50.864;12.096;2023-02-14T23:03:56;100877.25;;;1.41;75.21
11212;BME280;5663;50.864;12.096;2023-02-14T23:06:30;100845.31;;;1.13;75.17
11212;BME280;5663;50.864;12.096;2023-02-14T23:08:59;100884.88;;;1.36;75.27
11212;BME280;5663;50.864;12.096;2023-02-14T23:11:29;100869.41;;;1.30;75.29
11212;BME280;5663;50.864;12.096;2023-02-14T23:13:59;100882.28;;;1.33;75.38
11212;BME280;5663;50.864;12.096;2023-02-14T23:16:46;100878.81;;;1.31;75.41
11212;BME280;5663;50.864;12.096;2023-02-14T23:19:34;100877.06;;;1.27;75.50
11212;BME280;5663;50.864;12.096;2023-02-14T23:22:23;100875.34;;;1.26;75.61
11212;BME280;5663;50.864;12.096;2023-02-14T23:24:55;100876.22;;;1.25;75.49
11212;BME280;5663;50.864;12.096;2023-02-14T23:27:25;100877.91;;;1.26;75.58
11212;BME280;5663;50.864;12.096;2023-02-14T23:30:02;100841.81;;;1.08;75.48
11212;BME280;5663;50.864;12.096;2023-02-14T23:32:31;100872.75;;;1.23;75.60
11212;BME280;5663;50.864;12.096;2023-02-14T23:35:01;100871.03;;;1.22;75.25
11212;BME280;5663;50.864;12.096;2023-02-14T23:37:29;100840.97;;;1.04;75.38
11212;BME280;5663;50.864;12.096;2023-02-14T23:39:58;100869.28;;;1.18;75.18
11212;BME280;5663;50.864;12.096;2023-02-14T23:42:28;100853.84;;;1.12;75.38
11212;BME280;5663;50.864;12.096;2023-02-14T23:44:58;100863.31;;;1.19;75.32
11212;BME280;5663;50.864;12.096;2023-02-14T23:47:46;100857.31;;;1.17;75.24
11212;BME280;5663;50.864;12.096;2023-02-14T23:50:17;100852.16;;;1.14;75.30
11212;BME280;5663;50.864;12.096;2023-02-14T23:52:47;100854.72;;;1.12;75.56
11212;BME280;5663;50.864;12.096;2023-02-14T23:55:15;100846.13;;;1.09;75.50
11212;BME280;5663;50.864;12.096;2023-02-14T23:57:47;100849.50;;;1.08;75.72
